Airfield :







YOU CAN JOIN US ON...

 
LOGIN :

Register | Disclaimer

   EN    FR    IT 

 









Legend :    VFR   Marginal VFR   IFR   Intensive IFR   Very Intensive IFR
Visi :
Ceiling :
>= 8 km
>= 3000ft
5 to 8 km
1000 to 3000 ft
1500m to 5 km
500 to 1000 ft
800 to 1500m
200 to 500 ft
< 800m
< 200 ft
Symbols :   Thunderstorms  Fog  Heavy snow  Heavy precipitations  Wind > 20 kt






- Airport Elevation : 10 ft
- IATA code : ORG


SMZO - Zorg en Hoop

CURRENT METAR :
  • 270900Z 00000KT 9999 FEW010 SCT025 25/23 Q1013 NOSIG

TAF TAF SMZO
Valid from the 27 at 06:00 until the 28 at 06:00 UTC


270400Z 2706/2806 10005KT 9999 FEW010 SCT025 TX30/2716Z TN24/2709Z
PROB30
BECMG 2711/2713 09008KT
TEMPO 2717/2723 3500 SHRA/TSRA FEW015CB BKN018
SMPM FIR / South America



MET'MAP, your aeronautical weather chart ! - Copyright ORBIFLY December 2007 - Disclaimer

ORBIFLY MET'MAP TEAM :

Programming & Development : Alexandra Zaïnal
Concept & original design : Baudouin d'Aumeries
Assistance for programming : Marc-Olivier Méhu
Technical & hardware support : Manuel Goepfert

Contact : metmap@orbifly.com




SOURCES & CREDITS :

   NOAA